sensor_id;sensor_type;location;lat;lon;timestamp;P1;durP1;ratioP1;P2;durP2;ratioP2
75156;SDS011;63736;50.076;8.198;2023-01-29T00:00:37;261.27;;;92.03;;
75156;SDS011;63736;50.076;8.198;2023-01-29T00:03:02;257.13;;;89.63;;
75156;SDS011;63736;50.076;8.198;2023-01-29T00:05:27;257.58;;;89.25;;
75156;SDS011;63736;50.076;8.198;2023-01-29T00:07:53;258.00;;;89.70;;
75156;SDS011;63736;50.076;8.198;2023-01-29T00:10:19;261.30;;;91.18;;
75156;SDS011;63736;50.076;8.198;2023-01-29T00:12:44;262.47;;;91.57;;
75156;SDS011;63736;50.076;8.198;2023-01-29T00:15:10;263.33;;;90.97;;
75156;SDS011;63736;50.076;8.198;2023-01-29T00:17:35;273.33;;;93.27;;
75156;SDS011;63736;50.076;8.198;2023-01-29T00:20:00;276.20;;;94.57;;
75156;SDS011;63736;50.076;8.198;2023-01-29T00:22:26;280.90;;;95.63;;
75156;SDS011;63736;50.076;8.198;2023-01-29T00:24:51;283.40;;;95.77;;
75156;SDS011;63736;50.076;8.198;2023-01-29T00:27:16;285.90;;;97.10;;
75156;SDS011;63736;50.076;8.198;2023-01-29T00:29:41;287.90;;;96.57;;
75156;SDS011;63736;50.076;8.198;2023-01-29T00:32:07;309.03;;;100.97;;
75156;SDS011;63736;50.076;8.198;2023-01-29T00:34:32;444.50;;;160.87;;
75156;SDS011;63736;50.076;8.198;2023-01-29T00:36:58;380.93;;;133.63;;
75156;SDS011;63736;50.076;8.198;2023-01-29T00:39:32;383.83;;;133.95;;
75156;SDS011;63736;50.076;8.198;2023-01-29T00:42:03;389.90;;;136.70;;
75156;SDS011;63736;50.076;8.198;2023-01-29T00:44:48;398.35;;;139.38;;
75156;SDS011;63736;50.076;8.198;2023-01-29T00:47:22;408.38;;;142.82;;
75156;SDS011;63736;50.076;8.198;2023-01-29T00:49:54;415.93;;;144.30;;
75156;SDS011;63736;50.076;8.198;2023-01-29T00:52:19;405.33;;;141.30;;
75156;SDS011;63736;50.076;8.198;2023-01-29T00:54:48;247.00;;;89.90;;
75156;SDS011;63736;50.076;8.198;2023-01-29T00:57:13;256.17;;;92.77;;
75156;SDS011;63736;50.076;8.198;2023-01-29T00:59:38;275.08;;;98.63;;
75156;SDS011;63736;50.076;8.198;2023-01-29T01:02:03;289.83;;;103.20;;
75156;SDS011;63736;50.076;8.198;2023-01-29T01:04:47;320.70;;;114.50;;
75156;SDS011;63736;50.076;8.198;2023-01-29T01:07:12;361.30;;;127.80;;
75156;SDS011;63736;50.076;8.198;2023-01-29T01:09:38;376.73;;;133.27;;
75156;SDS011;63736;50.076;8.198;2023-01-29T01:12:22;388.97;;;137.00;;
75156;SDS011;63736;50.076;8.198;2023-01-29T01:14:47;297.48;;;104.65;;
75156;SDS011;63736;50.076;8.198;2023-01-29T01:17:12;318.10;;;113.47;;
75156;SDS011;63736;50.076;8.198;2023-01-29T01:19:39;331.55;;;115.68;;
75156;SDS011;63736;50.076;8.198;2023-01-29T01:22:05;336.30;;;117.97;;
75156;SDS011;63736;50.076;8.198;2023-01-29T01:24:30;369.47;;;129.30;;
75156;SDS011;63736;50.076;8.198;2023-01-29T01:26:56;373.52;;;129.98;;
75156;SDS011;63736;50.076;8.198;2023-01-29T01:29:21;375.80;;;130.70;;
75156;SDS011;63736;50.076;8.198;2023-01-29T01:31:46;363.53;;;124.77;;
75156;SDS011;63736;50.076;8.198;2023-01-29T01:34:12;376.10;;;129.60;;
75156;SDS011;63736;50.076;8.198;2023-01-29T01:36:37;433.60;;;156.93;;
75156;SDS011;63736;50.076;8.198;2023-01-29T01:39:02;409.40;;;140.53;;
75156;SDS011;63736;50.076;8.198;2023-01-29T01:41:28;421.00;;;142.85;;
75156;SDS011;63736;50.076;8.198;2023-01-29T01:43:55;442.70;;;149.63;;
75156;SDS011;63736;50.076;8.198;2023-01-29T01:46:23;462.33;;;161.70;;
75156;SDS011;63736;50.076;8.198;2023-01-29T01:48:51;431.42;;;147.15;;
75156;SDS011;63736;50.076;8.198;2023-01-29T01:51:23;454.08;;;155.35;;
75156;SDS011;63736;50.076;8.198;2023-01-29T01:53:54;469.10;;;160.90;;
75156;SDS011;63736;50.076;8.198;2023-01-29T01:56:27;473.60;;;165.17;;
75156;SDS011;63736;50.076;8.198;2023-01-29T01:59:02;466.63;;;160.38;;
75156;SDS011;63736;50.076;8.198;2023-01-29T02:01:31;464.60;;;161.32;;
75156;SDS011;63736;50.076;8.198;2023-01-29T02:03:58;461.38;;;157.90;;
75156;SDS011;63736;50.076;8.198;2023-01-29T02:06:48;467.25;;;160.55;;
75156;SDS011;63736;50.076;8.198;2023-01-29T02:09:36;228.80;;;83.03;;
75156;SDS011;63736;50.076;8.198;2023-01-29T02:12:07;237.02;;;86.88;;
75156;SDS011;63736;50.076;8.198;2023-01-29T02:14:36;224.25;;;81.22;;
75156;SDS011;63736;50.076;8.198;2023-01-29T02:17:06;197.73;;;72.40;;
75156;SDS011;63736;50.076;8.198;2023-01-29T02:19:51;192.82;;;70.53;;
75156;SDS011;63736;50.076;8.198;2023-01-29T02:31:07;209.00;;;75.68;;
75156;SDS011;63736;50.076;8.198;2023-01-29T02:33:54;193.60;;;71.55;;
75156;SDS011;63736;50.076;8.198;2023-01-29T02:41:42;193.13;;;71.90;;
75156;SDS011;63736;50.076;8.198;2023-01-29T02:47:18;224.15;;;81.10;;
75156;SDS011;63736;50.076;8.198;2023-01-29T02:55:33;269.63;;;95.80;;
75156;SDS011;63736;50.076;8.198;2023-01-29T02:58:10;247.02;;;88.70;;
75156;SDS011;63736;50.076;8.198;2023-01-29T03:00:41;228.35;;;83.05;;
75156;SDS011;63736;50.076;8.198;2023-01-29T03:03:19;229.37;;;82.73;;
75156;SDS011;63736;50.076;8.198;2023-01-29T03:08:42;229.00;;;83.40;;
75156;SDS011;63736;50.076;8.198;2023-01-29T03:11:15;240.02;;;86.13;;
75156;SDS011;63736;50.076;8.198;2023-01-29T03:13:50;250.40;;;90.43;;
75156;SDS011;63736;50.076;8.198;2023-01-29T03:16:30;255.33;;;92.60;;
75156;SDS011;63736;50.076;8.198;2023-01-29T03:19:34;235.05;;;84.95;;
75156;SDS011;63736;50.076;8.198;2023-01-29T03:22:00;216.98;;;80.20;;
75156;SDS011;63736;50.076;8.198;2023-01-29T03:24:31;212.70;;;77.68;;
75156;SDS011;63736;50.076;8.198;2023-01-29T03:27:24;199.90;;;74.13;;
75156;SDS011;63736;50.076;8.198;2023-01-29T03:30:12;201.50;;;74.83;;
75156;SDS011;63736;50.076;8.198;2023-01-29T03:33:01;196.98;;;73.25;;
75156;SDS011;63736;50.076;8.198;2023-01-29T03:35:30;194.65;;;72.93;;
75156;SDS011;63736;50.076;8.198;2023-01-29T03:38:04;196.40;;;72.88;;
75156;SDS011;63736;50.076;8.198;2023-01-29T03:40:35;196.75;;;72.80;;
75156;SDS011;63736;50.076;8.198;2023-01-29T03:43:12;201.30;;;73.83;;
75156;SDS011;63736;50.076;8.198;2023-01-29T03:45:57;205.20;;;76.82;;
75156;SDS011;63736;50.076;8.198;2023-01-29T03:48:45;198.13;;;74.15;;
75156;SDS011;63736;50.076;8.198;2023-01-29T03:51:32;195.25;;;72.90;;
75156;SDS011;63736;50.076;8.198;2023-01-29T03:56:44;197.93;;;72.90;;
75156;SDS011;63736;50.076;8.198;2023-01-29T03:59:23;210.98;;;77.60;;
75156;SDS011;63736;50.076;8.198;2023-01-29T04:02:06;219.13;;;81.25;;
75156;SDS011;63736;50.076;8.198;2023-01-29T04:04:37;220.57;;;80.97;;
75156;SDS011;63736;50.076;8.198;2023-01-29T04:07:13;227.48;;;82.95;;
75156;SDS011;63736;50.076;8.198;2023-01-29T04:09:45;230.20;;;83.83;;
75156;SDS011;63736;50.076;8.198;2023-01-29T04:12:13;229.68;;;83.45;;
75156;SDS011;63736;50.076;8.198;2023-01-29T04:14:43;241.23;;;88.65;;
75156;SDS011;63736;50.076;8.198;2023-01-29T04:17:12;247.90;;;90.07;;
75156;SDS011;63736;50.076;8.198;2023-01-29T04:19:41;246.93;;;90.30;;
75156;SDS011;63736;50.076;8.198;2023-01-29T04:22:12;250.93;;;91.43;;
75156;SDS011;63736;50.076;8.198;2023-01-29T04:24:46;251.35;;;91.85;;
75156;SDS011;63736;50.076;8.198;2023-01-29T04:30:00;248.10;;;90.43;;
75156;SDS011;63736;50.076;8.198;2023-01-29T04:40:19;258.40;;;94.38;;
75156;SDS011;63736;50.076;8.198;2023-01-29T04:48:18;296.70;;;108.87;;
75156;SDS011;63736;50.076;8.198;2023-01-29T04:50:52;299.90;;;110.05;;
75156;SDS011;63736;50.076;8.198;2023-01-29T04:56:22;305.45;;;113.20;;
75156;SDS011;63736;50.076;8.198;2023-01-29T04:58:56;309.40;;;114.18;;
75156;SDS011;63736;50.076;8.198;2023-01-29T05:01:28;314.07;;;116.30;;
75156;SDS011;63736;50.076;8.198;2023-01-29T05:03:57;318.25;;;116.63;;
75156;SDS011;63736;50.076;8.198;2023-01-29T05:06:24;324.73;;;119.55;;
75156;SDS011;63736;50.076;8.198;2023-01-29T05:08:50;329.73;;;121.15;;
75156;SDS011;63736;50.076;8.198;2023-01-29T05:11:16;325.20;;;120.23;;
75156;SDS011;63736;50.076;8.198;2023-01-29T05:13:42;311.98;;;114.80;;
75156;SDS011;63736;50.076;8.198;2023-01-29T05:16:16;304.90;;;112.23;;
75156;SDS011;63736;50.076;8.198;2023-01-29T05:18:45;316.15;;;115.88;;
75156;SDS011;63736;50.076;8.198;2023-01-29T05:21:11;337.88;;;124.22;;
75156;SDS011;63736;50.076;8.198;2023-01-29T05:23:37;350.55;;;129.10;;
75156;SDS011;63736;50.076;8.198;2023-01-29T05:26:02;324.27;;;119.13;;
75156;SDS011;63736;50.076;8.198;2023-01-29T05:28:28;327.27;;;118.95;;
75156;SDS011;63736;50.076;8.198;2023-01-29T05:30:54;344.00;;;124.77;;
75156;SDS011;63736;50.076;8.198;2023-01-29T05:33:21;359.10;;;131.17;;
75156;SDS011;63736;50.076;8.198;2023-01-29T05:35:49;356.33;;;130.88;;
75156;SDS011;63736;50.076;8.198;2023-01-29T05:38:15;363.85;;;134.27;;
75156;SDS011;63736;50.076;8.198;2023-01-29T05:40:41;370.23;;;135.52;;
75156;SDS011;63736;50.076;8.198;2023-01-29T05:43:25;375.30;;;138.43;;
75156;SDS011;63736;50.076;8.198;2023-01-29T05:45:54;373.42;;;137.60;;
75156;SDS011;63736;50.076;8.198;2023-01-29T05:48:24;327.50;;;122.22;;
75156;SDS011;63736;50.076;8.198;2023-01-29T05:50:51;370.80;;;139.32;;
75156;SDS011;63736;50.076;8.198;2023-01-29T05:53:16;393.20;;;146.40;;
75156;SDS011;63736;50.076;8.198;2023-01-29T05:55:47;411.53;;;153.87;;
75156;SDS011;63736;50.076;8.198;2023-01-29T05:58:13;422.35;;;158.50;;
75156;SDS011;63736;50.076;8.198;2023-01-29T06:00:38;436.17;;;166.23;;
75156;SDS011;63736;50.076;8.198;2023-01-29T06:03:04;444.57;;;169.23;;
75156;SDS011;63736;50.076;8.198;2023-01-29T06:05:29;449.23;;;171.63;;
75156;SDS011;63736;50.076;8.198;2023-01-29T06:07:55;453.23;;;173.83;;
75156;SDS011;63736;50.076;8.198;2023-01-29T06:10:20;463.13;;;177.90;;
75156;SDS011;63736;50.076;8.198;2023-01-29T06:12:45;465.43;;;179.10;;
75156;SDS011;63736;50.076;8.198;2023-01-29T06:15:11;465.83;;;180.67;;
75156;SDS011;63736;50.076;8.198;2023-01-29T06:17:39;464.00;;;177.75;;
75156;SDS011;63736;50.076;8.198;2023-01-29T06:20:05;459.80;;;175.47;;
75156;SDS011;63736;50.076;8.198;2023-01-29T06:22:31;466.63;;;176.45;;
75156;SDS011;63736;50.076;8.198;2023-01-29T06:24:57;470.58;;;181.15;;
75156;SDS011;63736;50.076;8.198;2023-01-29T06:27:22;472.20;;;182.40;;
75156;SDS011;63736;50.076;8.198;2023-01-29T06:29:47;480.10;;;190.07;;
75156;SDS011;63736;50.076;8.198;2023-01-29T06:32:12;360.97;;;136.63;;
75156;SDS011;63736;50.076;8.198;2023-01-29T06:34:38;365.20;;;138.83;;
75156;SDS011;63736;50.076;8.198;2023-01-29T06:37:03;355.53;;;134.87;;
75156;SDS011;63736;50.076;8.198;2023-01-29T06:39:28;297.10;;;112.00;;
75156;SDS011;63736;50.076;8.198;2023-01-29T06:41:53;295.80;;;110.60;;
75156;SDS011;63736;50.076;8.198;2023-01-29T06:44:19;323.73;;;122.00;;
75156;SDS011;63736;50.076;8.198;2023-01-29T06:46:44;332.50;;;124.53;;
75156;SDS011;63736;50.076;8.198;2023-01-29T06:49:09;375.20;;;141.23;;
75156;SDS011;63736;50.076;8.198;2023-01-29T06:51:35;360.37;;;136.00;;
75156;SDS011;63736;50.076;8.198;2023-01-29T06:54:00;399.37;;;150.80;;
75156;SDS011;63736;50.076;8.198;2023-01-29T06:56:25;424.80;;;162.30;;
75156;SDS011;63736;50.076;8.198;2023-01-29T06:58:51;442.03;;;168.70;;
75156;SDS011;63736;50.076;8.198;2023-01-29T07:01:16;454.60;;;177.50;;
75156;SDS011;63736;50.076;8.198;2023-01-29T07:03:41;450.67;;;175.32;;
75156;SDS011;63736;50.076;8.198;2023-01-29T07:06:07;404.60;;;153.13;;
75156;SDS011;63736;50.076;8.198;2023-01-29T07:08:36;410.40;;;153.37;;
75156;SDS011;63736;50.076;8.198;2023-01-29T07:11:02;344.75;;;129.35;;
75156;SDS011;63736;50.076;8.198;2023-01-29T07:13:28;313.98;;;116.45;;
75156;SDS011;63736;50.076;8.198;2023-01-29T07:15:56;337.00;;;125.13;;
75156;SDS011;63736;50.076;8.198;2023-01-29T07:18:23;348.00;;;128.68;;
75156;SDS011;63736;50.076;8.198;2023-01-29T07:20:48;363.93;;;135.03;;
75156;SDS011;63736;50.076;8.198;2023-01-29T07:23:14;395.20;;;148.57;;
75156;SDS011;63736;50.076;8.198;2023-01-29T07:25:39;421.58;;;159.18;;
75156;SDS011;63736;50.076;8.198;2023-01-29T07:28:05;458.27;;;179.07;;
75156;SDS011;63736;50.076;8.198;2023-01-29T07:30:30;474.48;;;189.40;;
75156;SDS011;63736;50.076;8.198;2023-01-29T07:33:03;476.67;;;191.37;;
75156;SDS011;63736;50.076;8.198;2023-01-29T07:35:30;264.55;;;99.65;;
75156;SDS011;63736;50.076;8.198;2023-01-29T07:37:56;228.93;;;84.13;;
75156;SDS011;63736;50.076;8.198;2023-01-29T07:40:22;236.73;;;87.13;;
75156;SDS011;63736;50.076;8.198;2023-01-29T07:42:47;234.77;;;86.87;;
75156;SDS011;63736;50.076;8.198;2023-01-29T07:45:12;238.17;;;88.03;;
75156;SDS011;63736;50.076;8.198;2023-01-29T07:47:37;270.13;;;98.27;;
75156;SDS011;63736;50.076;8.198;2023-01-29T07:50:03;268.50;;;98.65;;
75156;SDS011;63736;50.076;8.198;2023-01-29T07:52:29;268.97;;;98.40;;
75156;SDS011;63736;50.076;8.198;2023-01-29T07:54:56;285.48;;;103.65;;
75156;SDS011;63736;50.076;8.198;2023-01-29T07:57:21;278.87;;;102.43;;
75156;SDS011;63736;50.076;8.198;2023-01-29T07:59:47;295.10;;;108.03;;
75156;SDS011;63736;50.076;8.198;2023-01-29T08:02:12;292.00;;;106.23;;
75156;SDS011;63736;50.076;8.198;2023-01-29T08:04:37;281.40;;;101.50;;
75156;SDS011;63736;50.076;8.198;2023-01-29T08:07:03;330.60;;;117.00;;
75156;SDS011;63736;50.076;8.198;2023-01-29T08:09:29;344.97;;;118.87;;
75156;SDS011;63736;50.076;8.198;2023-01-29T08:11:54;362.30;;;124.67;;
75156;SDS011;63736;50.076;8.198;2023-01-29T08:14:20;419.63;;;141.07;;
75156;SDS011;63736;50.076;8.198;2023-01-29T08:16:45;380.10;;;128.67;;
75156;SDS011;63736;50.076;8.198;2023-01-29T08:19:10;380.60;;;128.30;;
75156;SDS011;63736;50.076;8.198;2023-01-29T08:21:36;389.10;;;129.57;;
75156;SDS011;63736;50.076;8.198;2023-01-29T08:24:01;442.67;;;150.80;;
75156;SDS011;63736;50.076;8.198;2023-01-29T08:26:26;411.00;;;138.57;;
75156;SDS011;63736;50.076;8.198;2023-01-29T08:28:51;435.83;;;150.60;;
75156;SDS011;63736;50.076;8.198;2023-01-29T08:31:17;440.07;;;151.70;;
75156;SDS011;63736;50.076;8.198;2023-01-29T08:33:44;369.92;;;124.38;;
75156;SDS011;63736;50.076;8.198;2023-01-29T08:36:10;381.60;;;124.93;;
75156;SDS011;63736;50.076;8.198;2023-01-29T08:38:35;342.60;;;114.22;;
75156;SDS011;63736;50.076;8.198;2023-01-29T08:41:00;287.13;;;99.53;;
75156;SDS011;63736;50.076;8.198;2023-01-29T08:43:25;225.00;;;79.33;;
75156;SDS011;63736;50.076;8.198;2023-01-29T08:45:51;204.37;;;73.80;;
75156;SDS011;63736;50.076;8.198;2023-01-29T08:48:16;212.70;;;75.83;;
75156;SDS011;63736;50.076;8.198;2023-01-29T08:50:41;207.23;;;74.53;;
75156;SDS011;63736;50.076;8.198;2023-01-29T08:53:07;196.23;;;70.43;;
75156;SDS011;63736;50.076;8.198;2023-01-29T08:55:36;159.35;;;62.13;;
75156;SDS011;63736;50.076;8.198;2023-01-29T08:58:03;117.45;;;53.67;;
75156;SDS011;63736;50.076;8.198;2023-01-29T09:00:30;110.47;;;51.63;;
75156;SDS011;63736;50.076;8.198;2023-01-29T09:02:56;109.53;;;51.57;;
75156;SDS011;63736;50.076;8.198;2023-01-29T09:05:23;110.95;;;51.60;;
75156;SDS011;63736;50.076;8.198;2023-01-29T09:07:48;111.90;;;51.07;;
75156;SDS011;63736;50.076;8.198;2023-01-29T09:10:14;116.43;;;52.83;;
75156;SDS011;63736;50.076;8.198;2023-01-29T09:12:40;118.43;;;52.80;;
75156;SDS011;63736;50.076;8.198;2023-01-29T09:15:06;140.50;;;58.22;;
75156;SDS011;63736;50.076;8.198;2023-01-29T09:17:32;128.57;;;55.53;;
75156;SDS011;63736;50.076;8.198;2023-01-29T09:19:57;127.83;;;55.67;;
75156;SDS011;63736;50.076;8.198;2023-01-29T09:22:22;105.30;;;50.30;;
75156;SDS011;63736;50.076;8.198;2023-01-29T09:24:48;134.63;;;56.93;;
75156;SDS011;63736;50.076;8.198;2023-01-29T09:27:13;120.73;;;53.90;;
75156;SDS011;63736;50.076;8.198;2023-01-29T09:29:38;131.17;;;57.67;;
75156;SDS011;63736;50.076;8.198;2023-01-29T09:32:04;122.07;;;53.93;;
75156;SDS011;63736;50.076;8.198;2023-01-29T09:34:29;185.20;;;69.82;;
75156;SDS011;63736;50.076;8.198;2023-01-29T09:36:54;117.77;;;54.27;;
75156;SDS011;63736;50.076;8.198;2023-01-29T09:39:20;106.47;;;50.43;;
75156;SDS011;63736;50.076;8.198;2023-01-29T09:42:00;96.80;;;48.40;;
75156;SDS011;63736;50.076;8.198;2023-01-29T09:47:36;111.82;;;51.40;;
75156;SDS011;63736;50.076;8.198;2023-01-29T09:52:35;199.82;;;73.38;;
75156;SDS011;63736;50.076;8.198;2023-01-29T09:55:11;127.80;;;54.92;;
75156;SDS011;63736;50.076;8.198;2023-01-29T09:57:47;123.85;;;53.97;;
75156;SDS011;63736;50.076;8.198;2023-01-29T10:00:23;138.30;;;58.50;;
75156;SDS011;63736;50.076;8.198;2023-01-29T10:11:44;81.55;;;45.72;;
75156;SDS011;63736;50.076;8.198;2023-01-29T10:25:40;121.05;;;54.65;;
75156;SDS011;63736;50.076;8.198;2023-01-29T10:28:27;49.40;;;34.70;;
75156;SDS011;63736;50.076;8.198;2023-01-29T10:30:58;54.33;;;36.03;;
75156;SDS011;63736;50.076;8.198;2023-01-29T10:36:02;92.40;;;47.22;;
75156;SDS011;63736;50.076;8.198;2023-01-29T10:38:44;100.28;;;49.60;;
75156;SDS011;63736;50.076;8.198;2023-01-29T10:43:47;101.40;;;49.88;;
75156;SDS011;63736;50.076;8.198;2023-01-29T10:46:35;114.68;;;55.55;;
75156;SDS011;63736;50.076;8.198;2023-01-29T10:51:57;186.15;;;70.32;;
75156;SDS011;63736;50.076;8.198;2023-01-29T10:54:36;16.53;;;9.53;;
75156;SDS011;63736;50.076;8.198;2023-01-29T10:59:56;24.90;;;19.52;;
75156;SDS011;63736;50.076;8.198;2023-01-29T11:02:34;27.70;;;18.55;;
75156;SDS011;63736;50.076;8.198;2023-01-29T11:04:59;29.07;;;21.43;;
75156;SDS011;63736;50.076;8.198;2023-01-29T11:07:24;30.60;;;21.40;;
75156;SDS011;63736;50.076;8.198;2023-01-29T11:10:06;28.67;;;19.88;;
75156;SDS011;63736;50.076;8.198;2023-01-29T11:12:37;39.75;;;26.42;;
75156;SDS011;63736;50.076;8.198;2023-01-29T11:15:17;24.30;;;18.97;;
75156;SDS011;63736;50.076;8.198;2023-01-29T11:20:35;53.72;;;36.15;;
75156;SDS011;63736;50.076;8.198;2023-01-29T11:23:01;42.60;;;29.80;;
75156;SDS011;63736;50.076;8.198;2023-01-29T11:25:26;30.63;;;21.73;;
75156;SDS011;63736;50.076;8.198;2023-01-29T11:27:54;33.15;;;22.70;;
75156;SDS011;63736;50.076;8.198;2023-01-29T11:30:25;37.20;;;22.20;;
75156;SDS011;63736;50.076;8.198;2023-01-29T11:32:59;39.08;;;22.98;;
75156;SDS011;63736;50.076;8.198;2023-01-29T11:35:34;43.90;;;28.23;;
75156;SDS011;63736;50.076;8.198;2023-01-29T11:40:41;30.90;;;25.50;;
75156;SDS011;63736;50.076;8.198;2023-01-29T11:43:17;39.50;;;28.57;;
75156;SDS011;63736;50.076;8.198;2023-01-29T11:45:56;59.35;;;38.80;;
75156;SDS011;63736;50.076;8.198;2023-01-29T11:48:26;62.53;;;40.55;;
75156;SDS011;63736;50.076;8.198;2023-01-29T11:51:03;68.95;;;43.22;;
75156;SDS011;63736;50.076;8.198;2023-01-29T11:53:36;72.70;;;47.73;;
75156;SDS011;63736;50.076;8.198;2023-01-29T11:56:49;75.72;;;43.75;;
75156;SDS011;63736;50.076;8.198;2023-01-29T11:59:13;103.57;;;51.25;;
75156;SDS011;63736;50.076;8.198;2023-01-29T12:01:53;98.37;;;50.17;;
75156;SDS011;63736;50.076;8.198;2023-01-29T12:04:20;118.78;;;55.60;;
75156;SDS011;63736;50.076;8.198;2023-01-29T12:06:48;125.80;;;57.22;;
75156;SDS011;63736;50.076;8.198;2023-01-29T12:09:18;119.05;;;55.60;;
75156;SDS011;63736;50.076;8.198;2023-01-29T12:11:45;141.38;;;60.72;;
75156;SDS011;63736;50.076;8.198;2023-01-29T12:14:21;154.50;;;62.53;;
75156;SDS011;63736;50.076;8.198;2023-01-29T12:16:55;147.82;;;62.67;;
75156;SDS011;63736;50.076;8.198;2023-01-29T12:19:36;152.30;;;63.35;;
75156;SDS011;63736;50.076;8.198;2023-01-29T12:24:57;174.15;;;67.32;;
75156;SDS011;63736;50.076;8.198;2023-01-29T12:27:45;166.30;;;64.95;;
75156;SDS011;63736;50.076;8.198;2023-01-29T12:30:21;147.30;;;60.22;;
75156;SDS011;63736;50.076;8.198;2023-01-29T12:36:22;215.80;;;77.30;;
75156;SDS011;63736;50.076;8.198;2023-01-29T12:38:31;228.93;;;81.13;;
75156;SDS011;63736;50.076;8.198;2023-01-29T12:41:02;98.57;;;49.53;;
75156;SDS011;63736;50.076;8.198;2023-01-29T12:43:34;56.15;;;35.72;;
75156;SDS011;63736;50.076;8.198;2023-01-29T12:46:37;63.03;;;40.42;;
75156;SDS011;63736;50.076;8.198;2023-01-29T12:49:17;56.40;;;37.97;;
75156;SDS011;63736;50.076;8.198;2023-01-29T12:51:50;51.67;;;35.92;;
75156;SDS011;63736;50.076;8.198;2023-01-29T12:57:30;50.60;;;35.03;;
75156;SDS011;63736;50.076;8.198;2023-01-29T13:00:04;55.22;;;37.95;;
75156;SDS011;63736;50.076;8.198;2023-01-29T13:02:41;53.95;;;37.72;;
75156;SDS011;63736;50.076;8.198;2023-01-29T13:05:17;66.75;;;41.35;;
75156;SDS011;63736;50.076;8.198;2023-01-29T13:07:48;68.83;;;41.73;;
75156;SDS011;63736;50.076;8.198;2023-01-29T13:10:19;73.18;;;43.88;;
75156;SDS011;63736;50.076;8.198;2023-01-29T13:12:57;71.53;;;43.33;;
75156;SDS011;63736;50.076;8.198;2023-01-29T13:15:29;66.03;;;40.63;;
75156;SDS011;63736;50.076;8.198;2023-01-29T13:18:06;72.30;;;43.05;;
75156;SDS011;63736;50.076;8.198;2023-01-29T13:21:02;85.27;;;46.53;;
75156;SDS011;63736;50.076;8.198;2023-01-29T13:23:33;74.97;;;45.75;;
75156;SDS011;63736;50.076;8.198;2023-01-29T13:26:01;71.45;;;42.92;;
75156;SDS011;63736;50.076;8.198;2023-01-29T13:28:27;58.85;;;39.33;;
75156;SDS011;63736;50.076;8.198;2023-01-29T13:31:09;77.03;;;45.87;;
75156;SDS011;63736;50.076;8.198;2023-01-29T13:36:31;120.80;;;55.03;;
75156;SDS011;63736;50.076;8.198;2023-01-29T13:39:05;100.33;;;50.17;;
75156;SDS011;63736;50.076;8.198;2023-01-29T13:41:33;109.28;;;52.25;;
75156;SDS011;63736;50.076;8.198;2023-01-29T13:44:03;104.50;;;51.17;;
75156;SDS011;63736;50.076;8.198;2023-01-29T13:46:31;107.68;;;51.90;;
75156;SDS011;63736;50.076;8.198;2023-01-29T13:48:57;115.77;;;53.70;;
75156;SDS011;63736;50.076;8.198;2023-01-29T13:51:28;112.30;;;53.63;;
75156;SDS011;63736;50.076;8.198;2023-01-29T13:54:03;139.40;;;59.63;;
75156;SDS011;63736;50.076;8.198;2023-01-29T13:58:58;107.40;;;52.27;;
75156;SDS011;63736;50.076;8.198;2023-01-29T14:06:48;153.32;;;62.28;;
75156;SDS011;63736;50.076;8.198;2023-01-29T14:12:06;175.10;;;66.72;;
75156;SDS011;63736;50.076;8.198;2023-01-29T14:17:20;153.07;;;60.60;;
75156;SDS011;63736;50.076;8.198;2023-01-29T14:19:52;167.48;;;65.57;;
75156;SDS011;63736;50.076;8.198;2023-01-29T14:22:40;192.57;;;71.85;;
75156;SDS011;63736;50.076;8.198;2023-01-29T14:25:14;202.38;;;73.75;;
75156;SDS011;63736;50.076;8.198;2023-01-29T14:27:45;213.17;;;76.40;;
75156;SDS011;63736;50.076;8.198;2023-01-29T14:30:12;231.95;;;82.40;;
75156;SDS011;63736;50.076;8.198;2023-01-29T14:32:43;284.27;;;95.60;;
75156;SDS011;63736;50.076;8.198;2023-01-29T14:35:17;322.10;;;106.68;;
75156;SDS011;63736;50.076;8.198;2023-01-29T14:37:43;327.33;;;109.18;;
75156;SDS011;63736;50.076;8.198;2023-01-29T14:42:54;333.52;;;110.95;;
75156;SDS011;63736;50.076;8.198;2023-01-29T14:45:27;329.85;;;109.72;;
75156;SDS011;63736;50.076;8.198;2023-01-29T14:55:51;359.93;;;119.57;;
75156;SDS011;63736;50.076;8.198;2023-01-29T14:58:42;355.27;;;118.63;;
75156;SDS011;63736;50.076;8.198;2023-01-29T15:01:22;360.88;;;119.05;;
75156;SDS011;63736;50.076;8.198;2023-01-29T15:04:01;371.63;;;121.60;;
75156;SDS011;63736;50.076;8.198;2023-01-29T15:06:38;390.42;;;127.47;;
75156;SDS011;63736;50.076;8.198;2023-01-29T15:09:14;417.40;;;135.20;;
75156;SDS011;63736;50.076;8.198;2023-01-29T15:12:12;368.73;;;123.22;;
75156;SDS011;63736;50.076;8.198;2023-01-29T15:14:51;355.95;;;120.75;;
75156;SDS011;63736;50.076;8.198;2023-01-29T15:17:28;362.80;;;122.80;;
75156;SDS011;63736;50.076;8.198;2023-01-29T15:19:57;394.45;;;130.75;;
75156;SDS011;63736;50.076;8.198;2023-01-29T15:22:22;389.63;;;131.73;;
75156;SDS011;63736;50.076;8.198;2023-01-29T15:25:33;388.85;;;133.23;;
75156;SDS011;63736;50.076;8.198;2023-01-29T15:27:45;331.90;;;115.38;;
75156;SDS011;63736;50.076;8.198;2023-01-29T15:30:17;335.27;;;117.67;;
75156;SDS011;63736;50.076;8.198;2023-01-29T15:32:46;354.05;;;123.32;;
75156;SDS011;63736;50.076;8.198;2023-01-29T15:35:24;378.00;;;132.40;;
75156;SDS011;63736;50.076;8.198;2023-01-29T15:37:59;402.95;;;141.02;;
75156;SDS011;63736;50.076;8.198;2023-01-29T15:40:40;384.17;;;135.55;;
75156;SDS011;63736;50.076;8.198;2023-01-29T15:43:21;166.23;;;66.30;;
75156;SDS011;63736;50.076;8.198;2023-01-29T15:45:57;197.17;;;74.67;;
75156;SDS011;63736;50.076;8.198;2023-01-29T15:48:34;166.25;;;66.13;;
75156;SDS011;63736;50.076;8.198;2023-01-29T15:51:04;194.95;;;75.10;;
75156;SDS011;63736;50.076;8.198;2023-01-29T15:53:35;212.73;;;77.90;;
75156;SDS011;63736;50.076;8.198;2023-01-29T15:56:08;179.35;;;70.72;;
75156;SDS011;63736;50.076;8.198;2023-01-29T15:58:35;160.93;;;64.87;;
75156;SDS011;63736;50.076;8.198;2023-01-29T16:01:02;168.57;;;66.97;;
75156;SDS011;63736;50.076;8.198;2023-01-29T16:03:29;155.65;;;63.60;;
75156;SDS011;63736;50.076;8.198;2023-01-29T16:05:57;147.23;;;63.75;;
75156;SDS011;63736;50.076;8.198;2023-01-29T16:08:22;160.47;;;64.53;;
75156;SDS011;63736;50.076;8.198;2023-01-29T16:10:54;111.13;;;53.90;;
75156;SDS011;63736;50.076;8.198;2023-01-29T16:13:22;106.30;;;51.63;;
75156;SDS011;63736;50.076;8.198;2023-01-29T16:15:54;120.47;;;55.20;;
75156;SDS011;63736;50.076;8.198;2023-01-29T16:18:20;95.60;;;50.33;;
75156;SDS011;63736;50.076;8.198;2023-01-29T16:20:51;63.20;;;40.58;;
75156;SDS011;63736;50.076;8.198;2023-01-29T16:23:20;53.88;;;37.15;;
75156;SDS011;63736;50.076;8.198;2023-01-29T16:25:49;62.47;;;39.07;;
75156;SDS011;63736;50.076;8.198;2023-01-29T16:28:15;53.88;;;36.00;;
75156;SDS011;63736;50.076;8.198;2023-01-29T16:30:42;67.10;;;41.22;;